createdAt,value
2023-04-12T00:01:28.307Z,101414.38
2023-04-12T00:06:34.812Z,101421.81
2023-04-12T00:11:39.107Z,101416.09
2023-04-12T00:16:43.831Z,101428.38
2023-04-12T00:21:51.115Z,101420.94
2023-04-12T00:26:59.687Z,101424.94
2023-04-12T00:32:04.376Z,101423.13
2023-04-12T00:37:13.213Z,101418.25
2023-04-12T00:42:17.123Z,101412.28
2023-04-12T00:47:25.252Z,101424.38
2023-04-12T00:52:31.285Z,101404.50
2023-04-12T00:57:37.245Z,101429.59
2023-04-12T01:02:44.869Z,101431.47
2023-04-12T01:07:56.910Z,101412.75
2023-04-12T01:13:11.651Z,101415.59
2023-04-12T01:18:19.467Z,101421.47
2023-04-12T01:23:44.213Z,101405.59
2023-04-12T01:28:53.796Z,101408.78
2023-04-12T01:33:59.961Z,101406.16
2023-04-12T01:39:05.359Z,101396.03
2023-04-12T01:44:22.961Z,101407.44
2023-04-12T01:49:31.140Z,101408.06
2023-04-12T01:54:41.160Z,101397.84
2023-04-12T01:59:47.819Z,101398.19
2023-04-12T02:04:54.091Z,101405.47
2023-04-12T02:09:57.855Z,101396.91
2023-04-12T02:15:03.698Z,101401.28
2023-04-12T02:20:08.888Z,101398.06
2023-04-12T02:25:12.632Z,101386.97
2023-04-12T02:30:19.557Z,101367.91
2023-04-12T02:35:23.348Z,101381.03
2023-04-12T02:40:27.160Z,101374.22
2023-04-12T02:45:32.435Z,101376.53
2023-04-12T02:50:38.205Z,101386.13
2023-04-12T02:55:41.801Z,101381.84
2023-04-12T03:00:47.198Z,101389.44
2023-04-12T03:05:50.836Z,101389.44
2023-04-12T03:10:54.445Z,101386.91
2023-04-12T03:16:01.185Z,101378.03
2023-04-12T03:21:05.890Z,101380.91
2023-04-12T03:26:10.709Z,101385.34
2023-04-12T03:31:16.033Z,101377.41
2023-04-12T03:36:19.666Z,101385.25
2023-04-12T03:41:23.700Z,101395.25
2023-04-12T03:46:29.172Z,101395.34
2023-04-12T03:51:33.034Z,101405.75
2023-04-12T03:56:37.225Z,101397.06
2023-04-12T04:01:43.140Z,101410.75
2023-04-12T04:06:47.065Z,101414.13
2023-04-12T04:11:50.659Z,101420.38
2023-04-12T04:16:55.930Z,101421.09
2023-04-12T04:21:59.741Z,101423.38
2023-04-12T04:27:03.375Z,101427.66
2023-04-12T04:32:10.004Z,101444.13
2023-04-12T04:37:14.932Z,101450.84
2023-04-12T04:42:18.796Z,101450.84
2023-04-12T04:47:24.166Z,101437.53
2023-04-12T04:52:27.946Z,101448.94
2023-04-12T04:57:31.674Z,101447.13
2023-04-12T05:02:38.941Z,101452.44
2023-04-12T05:07:42.847Z,101447.22
2023-04-12T05:12:46.650Z,101453.47
2023-04-12T05:17:52.699Z,101449.94
2023-04-12T05:22:56.465Z,101447.72
2023-04-12T05:28:00.128Z,101455.19
2023-04-12T05:33:05.479Z,101449.06
2023-04-12T05:38:09.278Z,101459.72
2023-04-12T05:43:13.022Z,101446.59
2023-04-12T05:48:19.368Z,101446.59
2023-04-12T05:53:23.404Z,101446.59
2023-04-12T05:58:27.007Z,101435.38
2023-04-12T06:03:32.581Z,101442.34
2023-04-12T06:08:36.686Z,101445.88
2023-04-12T06:13:40.768Z,101433.75
2023-04-12T06:18:46.179Z,101425.31
2023-04-12T06:23:49.984Z,101419.34
2023-04-12T06:28:53.704Z,101412.44
2023-04-12T06:33:59.855Z,101406.47
2023-04-12T06:39:02.767Z,101399.78
2023-04-12T06:44:06.393Z,101407.69
2023-04-12T06:49:11.769Z,101406.84
2023-04-12T06:54:15.682Z,101408.53
2023-04-12T06:59:19.294Z,101398.03
2023-04-12T07:04:24.554Z,101391.97
2023-04-12T07:09:28.224Z,101392.16
2023-04-12T07:14:32.581Z,101390.50
2023-04-12T07:19:37.935Z,101388.94
2023-04-12T07:24:41.579Z,101387.91
2023-04-12T07:29:45.244Z,101389.88
2023-04-12T07:34:50.514Z,101388.31
2023-04-12T07:39:54.122Z,101383.22
2023-04-12T07:44:57.919Z,101383.25
2023-04-12T07:50:03.463Z,101369.50
2023-04-12T07:55:07.478Z,101379.78
2023-04-12T08:00:12.039Z,101374.78
2023-04-12T08:05:17.361Z,101362.69
2023-04-12T08:10:20.975Z,101364.41
2023-04-12T08:15:24.643Z,101373.13
2023-04-12T08:20:29.943Z,101364.50
2023-04-12T08:25:33.564Z,101353.38
2023-04-12T08:30:37.196Z,101344.88
2023-04-12T08:35:42.453Z,101354.41
2023-04-12T08:40:46.830Z,101346.56
2023-04-12T08:45:51.728Z,101339.63
2023-04-12T08:50:57.816Z,101351.72
2023-04-12T08:56:01.785Z,101335.16
2023-04-12T09:01:08.263Z,101349.09
2023-04-12T09:06:16.527Z,101337.84
2023-04-12T09:11:24.909Z,101321.28
2023-04-12T09:16:38.889Z,101320.41
2023-04-12T09:21:53.947Z,101307.50
2023-04-12T09:27:04.456Z,101299.59
2023-04-12T09:32:10.286Z,101298.72
2023-04-12T09:37:18.424Z,101289.22
2023-04-12T09:42:33.302Z,101278.59
2023-04-12T09:47:38.748Z,101275.09
2023-04-12T09:52:44.317Z,101268.97
2023-04-12T09:57:50.842Z,101265.44
2023-04-12T10:02:55.893Z,101258.53
2023-04-12T10:08:01.592Z,101251.53
2023-04-12T10:13:06.372Z,101252.38
2023-04-12T10:18:12.554Z,101240.31
2023-04-12T10:23:18.858Z,101236.00
2023-04-12T10:28:22.553Z,101234.31
2023-04-12T10:33:28.595Z,101225.72
2023-04-12T10:38:48.503Z,101219.63
2023-04-12T10:43:52.558Z,101214.44
2023-04-12T10:48:56.495Z,101216.25
2023-04-12T10:54:29.157Z,101213.66
2023-04-12T10:59:57.728Z,101210.25
2023-04-12T11:05:09.130Z,101205.97
2023-04-12T11:10:17.639Z,101192.97
2023-04-12T11:15:27.401Z,101184.44
2023-04-12T11:20:32.258Z,101187.03
2023-04-12T11:25:36.750Z,101184.41
2023-04-12T11:30:50.691Z,101190.50
2023-04-12T11:35:54.381Z,101195.63
2023-04-12T11:40:58.037Z,101194.66
2023-04-12T11:46:03.630Z,101194.63
2023-04-12T11:51:21.108Z,101195.34
2023-04-12T11:56:24.969Z,101203.94
2023-04-12T12:01:30.756Z,101208.34
2023-04-12T12:06:34.755Z,101203.06
2023-04-12T12:11:38.622Z,101209.94
2023-04-12T12:16:43.894Z,101204.78
2023-04-12T12:21:47.499Z,101216.09
2023-04-12T12:26:51.365Z,101211.75
2023-04-12T12:31:56.765Z,101214.44
2023-04-12T12:37:00.862Z,101216.16
2023-04-12T12:42:04.572Z,101207.44
2023-04-12T12:47:14.103Z,101216.16
2023-04-12T12:52:18.368Z,101223.09
2023-04-12T12:57:21.981Z,101213.50
2023-04-12T13:02:27.438Z,101216.16
2023-04-12T13:07:31.188Z,101209.28
2023-04-12T13:12:34.878Z,101210.25
2023-04-12T13:17:40.207Z,101217.13
2023-04-12T13:22:43.857Z,101217.06
2023-04-12T13:27:48.562Z,101207.38
2023-04-12T13:32:54.913Z,101219.56
2023-04-12T13:37:58.683Z,101218.84
2023-04-12T13:43:02.430Z,101211.03
2023-04-12T13:48:07.820Z,101228.25
2023-04-12T13:53:11.551Z,101232.66
2023-04-12T13:58:15.223Z,101217.81
2023-04-12T14:03:20.658Z,101237.78
2023-04-12T14:08:25.014Z,101236.84
2023-04-12T14:13:28.766Z,101237.63
2023-04-12T14:18:34.181Z,101236.50
2023-04-12T14:23:37.898Z,101248.34
2023-04-12T14:28:41.533Z,101249.94
2023-04-12T14:33:47.326Z,101252.19
2023-04-12T14:38:51.173Z,101257.03
2023-04-12T14:43:54.807Z,101248.88
2023-04-12T14:49:00.222Z,101249.28
2023-04-12T14:54:03.974Z,101241.13
2023-04-12T14:59:07.612Z,101254.19
2023-04-12T15:04:13.161Z,101246.34
2023-04-12T15:09:17.030Z,101248.09
2023-04-12T15:14:20.844Z,101253.47
2023-04-12T15:19:26.320Z,101260.47
2023-04-12T15:24:30.088Z,101253.84
2023-04-12T15:29:35.023Z,101246.81
2023-04-12T15:34:40.346Z,101252.59
2023-04-12T15:39:43.978Z,101244.69
2023-04-12T15:44:47.616Z,101235.28
2023-04-12T15:49:52.869Z,101243.44
2023-04-12T15:54:56.458Z,101238.47
2023-04-12T16:00:00.152Z,101237.19
2023-04-12T16:05:05.888Z,101241.25
2023-04-12T16:10:10.469Z,101230.16
2023-04-12T16:15:14.102Z,101236.00
2023-04-12T16:20:19.645Z,101234.31
2023-04-12T16:25:23.662Z,101224.28
2023-04-12T16:30:27.370Z,101219.69
2023-04-12T16:35:32.736Z,101223.19
2023-04-12T16:40:36.369Z,101217.06
2023-04-12T16:45:40.057Z,101216.13
2023-04-12T16:50:46.549Z,101211.69
2023-04-12T16:55:50.185Z,101198.31
2023-04-12T17:00:53.808Z,101201.97
2023-04-12T17:05:59.101Z,101197.38
2023-04-12T17:11:03.126Z,101201.53
2023-04-12T17:16:07.544Z,101201.06
2023-04-12T17:21:12.865Z,101198.19
2023-04-12T17:26:16.820Z,101192.13
2023-04-12T17:31:21.042Z,101185.06
2023-04-12T17:36:26.429Z,101191.69
2023-04-12T17:41:30.108Z,101192.41
2023-04-12T17:46:33.943Z,101201.91
2023-04-12T17:51:39.261Z,101188.19
2023-04-12T17:56:43.456Z,101195.97
2023-04-12T18:01:47.342Z,101197.19
2023-04-12T18:06:52.673Z,101199.16
2023-04-12T18:11:56.376Z,101194.78
2023-04-12T18:17:00.073Z,101201.00
2023-04-12T18:22:05.525Z,101187.63
2023-04-12T18:27:09.231Z,101191.81
2023-04-12T18:32:13.657Z,101187.50
2023-04-12T18:37:19.033Z,101178.81
2023-04-12T18:42:22.770Z,101175.06
2023-04-12T18:47:27.377Z,101175.81
2023-04-12T18:52:32.873Z,101170.06
2023-04-12T18:57:36.520Z,101164.03
2023-04-12T19:02:40.254Z,101144.22
2023-04-12T19:07:45.666Z,101141.09
2023-04-12T19:12:49.355Z,101135.53
2023-04-12T19:17:53.087Z,101135.88
2023-04-12T19:22:58.356Z,101124.59
2023-04-12T19:28:02.044Z,101124.38
2023-04-12T19:33:05.892Z,101116.41
2023-04-12T19:38:11.346Z,101111.50
2023-04-12T19:43:14.301Z,101107.69
2023-04-12T19:48:17.876Z,101093.31
2023-04-12T19:53:23.270Z,101095.59
2023-04-12T19:58:27.006Z,101099.91
2023-04-12T20:03:30.688Z,101093.25
2023-04-12T20:08:37.089Z,101080.44
2023-04-12T20:13:40.832Z,101069.47
2023-04-12T20:18:44.642Z,101080.72
2023-04-12T20:23:50.084Z,101068.69
2023-04-12T20:28:52.902Z,101067.75
2023-04-12T20:33:56.678Z,101053.50
2023-04-12T20:39:02.077Z,101061.00
2023-04-12T20:44:04.944Z,101044.72
2023-04-12T20:49:08.558Z,101041.69
2023-04-12T20:54:13.812Z,101030.66
2023-04-12T20:59:17.457Z,101021.00
2023-04-12T21:04:21.215Z,101023.50
2023-04-12T21:09:26.596Z,101013.88
2023-04-12T21:14:29.529Z,101005.88
2023-04-12T21:19:33.564Z,100993.38
2023-04-12T21:24:38.988Z,100990.47
2023-04-12T21:29:42.729Z,100981.91
2023-04-12T21:34:46.485Z,100979.13
2023-04-12T21:39:51.867Z,100966.38
2023-04-12T21:44:55.555Z,100962.56
2023-04-12T21:49:59.274Z,100968.34
2023-04-12T21:55:04.992Z,100958.91
2023-04-12T22:00:09.630Z,100960.59
2023-04-12T22:05:13.319Z,100942.91
2023-04-12T22:10:18.757Z,100941.88
2023-04-12T22:15:21.673Z,100937.47
2023-04-12T22:20:25.275Z,100941.13
2023-04-12T22:25:30.586Z,100931.91
2023-04-12T22:30:37.193Z,100921.22
2023-04-12T22:35:40.822Z,100923.56
2023-04-12T22:40:47.426Z,100919.81
2023-04-12T22:45:51.280Z,100909.00
2023-04-12T22:50:55.034Z,100903.31
2023-04-12T22:56:01.194Z,100902.72
2023-04-12T23:01:05.134Z,100899.56
2023-04-12T23:06:09.255Z,100900.44
2023-04-12T23:11:14.563Z,100896.94
2023-04-12T23:16:18.247Z,100884.88
2023-04-12T23:21:21.969Z,100864.25
2023-04-12T23:26:28.156Z,100850.31
2023-04-12T23:31:31.900Z,100859.16
2023-04-12T23:36:36.505Z,100854.50
2023-04-12T23:41:42.922Z,100840.53
2023-04-12T23:46:46.576Z,100860.78
2023-04-12T23:51:50.348Z,100841.22
2023-04-12T23:56:55.720Z,100823.03
